Aérodrome :
LOGIN :

S'inscrire | Disclaimer

   EN    FR    IT 

 










Légende :    VFR   VFR Marginal   IFR   IFR Intensif   IFR Très Intensif
Visi : 
Plafond : 
>= 8 km
>= 3000ft
5 à 8 km
1000 à 3000 ft
1500m à 5 km
500 à 1000 ft
800 à 1500m
200 à 500 ft
< 800m
< 200 ft
Symboles :   Orages  Brouillard  Fortes neiges  Fortes précipitations  Vent > 20 kt
SIGMETs :   Divers  Orages  Givrage  Turbulence  Onde Orograph.  Cendres Volcan.






- Altitude de l'aérodrome : 1234 ft
- Code IATA : LUX


ELLX - Luxembourg Findel

DERNIER METAR :
  • 161150Z 08004KT 040V130 9999 FEW006 08/07 Q1021 NOSIG

METARs EXPIRÉS :
  • 161120Z 03005KT 360V060 9999 FEW004 07/07 Q1021 NOSIG
  • 161050Z 06005KT 020V090 9999 FEW002 07/06 Q1022 NOSIG
  • 161020Z 07005KT 030V100 1800 BR SCT001 06/05 Q1022 BECMG FM1100 6000 NSW SCT008
  • 160950Z 05005KT 020V090 1100 R24/0225V0650U PRFG SCT001 05/05 Q1022 BECMG FM1100 6000 NSW SCT008
  • 160920Z 03006KT 360V060 0200 R24/0175N FG BKN000 05/05 Q1022 BECMG FM1000 6000 NSW

TAF TAF ELLX
Valide du 16 à 12h jusqu'au 17 à 18h UTC


161100Z 1612/1718 04005KT 9999 FEW005
BECMG 1702/1704 VRB02KT 0200 FG VV001
BECMG 1709/1711 20005KT 9999 SCT018
ATIS : +352 4798 27300
Météo : +352 4798 27010 / 27050



MET'MAP, la Météo Aéronautique d'un coup d'oeil ! - Copyright ORBIFLY Décembre 2007 - Disclaimer

ORBIFLY MET'MAP TEAM :

Programmation & Développement : Alexandra Zaïnal
Sur une idée originale de : Baudouin d'Aumeries
Assistance à la programmation : Marc-Olivier Méhu
Soutien technique & logistique : Manuel Goepfert

Contact : metmap@orbifly.com




SOURCES & CREDITS :

   NOAA